TimeEST,TemperatureF,Dew PointF,Humidity,Sea Level PressureIn,VisibilityMPH,Wind Direction,Wind SpeedMPH,Gust SpeedMPH,PrecipitationIn,Events,Conditions,WindDirDegrees,DateUTC
12:56 AM,35.1,33.1,92,29.73,3.0,Calm,Calm,-,N/A,,Overcast,0,2012-12-19 05:56:00
1:56 AM,36.0,34.0,93,29.77,3.0,Calm,Calm,-,N/A,,Overcast,0,2012-12-19 06:56:00
2:25 AM,35.6,33.8,93,29.76,2.5,Calm,Calm,-,N/A,,Overcast,0,2012-12-19 07:25:00
2:43 AM,35.6,33.8,93,29.77,3.0,Calm,Calm,-,N/A,,Overcast,0,2012-12-19 07:43:00
2:53 AM,35.6,33.8,93,29.78,1.8,Calm,Calm,-,N/A,,Overcast,0,2012-12-19 07:53:00
2:56 AM,36.0,34.0,93,29.81,1.8,Calm,Calm,-,N/A,,Overcast,0,2012-12-19 07:56:00
3:07 AM,35.6,33.8,93,29.78,2.0,Calm,Calm,-,N/A,,Overcast,0,2012-12-19 08:07:00
3:42 AM,35.6,33.8,93,29.81,1.8,WNW,3.5,-,N/A,,Overcast,300,2012-12-19 08:42:00
3:56 AM,36.0,34.0,93,29.84,1.8,Calm,Calm,-,N/A,,Overcast,0,2012-12-19 08:56:00
4:11 AM,35.6,33.8,93,29.82,1.5,WNW,4.6,-,N/A,,Overcast,290,2012-12-19 09:11:00
4:56 AM,36.0,34.0,93,29.86,1.8,WNW,3.5,-,N/A,,Overcast,300,2012-12-19 09:56:00
5:14 AM,35.6,33.8,93,29.83,2.0,NW,4.6,-,N/A,,Overcast,320,2012-12-19 10:14:00
5:56 AM,36.0,34.0,93,29.88,2.5,NNW,4.6,-,N/A,,Overcast,330,2012-12-19 10:56:00
6:09 AM,35.6,33.8,93,29.87,3.0,NW,6.9,-,N/A,,Overcast,320,2012-12-19 11:09:00
6:56 AM,36.0,33.1,89,29.92,5.0,NNW,8.1,-,N/A,,Overcast,330,2012-12-19 11:56:00
7:19 AM,35.6,33.8,93,29.91,6.0,NW,3.5,-,N/A,,Overcast,320,2012-12-19 12:19:00
7:42 AM,35.6,32.0,87,29.92,8.0,Calm,Calm,-,N/A,,Overcast,0,2012-12-19 12:42:00
7:56 AM,36.0,32.0,86,29.95,8.0,Calm,Calm,-,N/A,,Overcast,0,2012-12-19 12:56:00
8:56 AM,36.0,33.1,89,29.99,5.0,WSW,3.5,-,N/A,,Overcast,250,2012-12-19 13:56:00
9:56 AM,36.0,33.1,89,30.03,6.0,West,5.8,-,N/A,,Overcast,270,2012-12-19 14:56:00
10:56 AM,37.0,32.0,82,30.06,8.0,West,5.8,-,N/A,,Overcast,270,2012-12-19 15:56:00
11:47 AM,39.2,33.8,81,30.03,8.0,NW,4.6,-,N/A,,Overcast,310,2012-12-19 16:47:00
11:56 AM,39.0,32.0,76,30.05,9.0,NW,6.9,-,N/A,,Mostly Cloudy,310,2012-12-19 16:56:00
12:04 PM,41.0,33.8,76,30.02,9.0,NW,4.6,-,N/A,,Scattered Clouds,320,2012-12-19 17:04:00
12:56 PM,41.0,32.0,70,30.06,10.0,NW,5.8,-,N/A,,Partly Cloudy,320,2012-12-19 17:56:00
1:43 PM,41.0,32.0,70,30.02,10.0,North,4.6,-,N/A,,Clear,10,2012-12-19 18:43:00
1:56 PM,41.0,30.9,67,30.05,10.0,Calm,Calm,-,N/A,,Clear,0,2012-12-19 18:56:00
2:56 PM,42.1,30.9,65,30.06,10.0,Calm,Calm,-,N/A,,Clear,0,2012-12-19 19:56:00
3:56 PM,41.0,30.0,65,30.07,10.0,Calm,Calm,-,N/A,,Clear,0,2012-12-19 20:56:00
4:22 PM,39.2,30.2,70,30.06,10.0,Calm,Calm,-,N/A,,Mostly Cloudy,0,2012-12-19 21:22:00
4:56 PM,39.9,30.0,68,30.09,10.0,South,3.5,-,N/A,,Mostly Cloudy,180,2012-12-19 21:56:00
5:56 PM,37.9,30.0,73,30.09,10.0,ESE,3.5,-,N/A,,Overcast,110,2012-12-19 22:56:00
6:23 PM,35.6,28.4,75,30.07,10.0,ESE,5.8,-,N/A,,Scattered Clouds,120,2012-12-19 23:23:00
6:56 PM,37.0,30.9,79,30.10,10.0,ESE,6.9,-,N/A,,Mostly Cloudy,110,2012-12-19 23:56:00
7:56 PM,37.0,30.9,79,30.12,8.0,South,6.9,-,N/A,,Overcast,170,2012-12-20 00:56:00
8:56 PM,35.1,30.9,85,30.12,8.0,SE,5.8,-,N/A,,Clear,140,2012-12-20 01:56:00
9:56 PM,35.1,30.9,85,30.11,8.0,SE,6.9,-,N/A,,Overcast,130,2012-12-20 02:56:00
10:56 PM,36.0,30.9,82,30.08,8.0,ESE,9.2,-,N/A,,Overcast,110,2012-12-20 03:56:00
11:56 PM,36.0,30.9,82,30.06,8.0,ESE,9.2,-,N/A,,Overcast,120,2012-12-20 04:56:00